createdAt,value
2018-11-06T00:00:06.358Z,99.80
2018-11-06T00:01:06.270Z,99.27
2018-11-06T00:02:06.193Z,99.99
2018-11-06T00:03:06.105Z,99.85
2018-11-06T00:04:06.019Z,99.85
2018-11-06T00:05:05.946Z,99.71
2018-11-06T00:06:05.856Z,99.04
2018-11-06T00:07:05.781Z,98.75
2018-11-06T00:08:05.692Z,99.04
2018-11-06T00:09:05.651Z,98.94
2018-11-06T00:10:05.532Z,99.04
2018-11-06T00:11:05.444Z,99.61
2018-11-06T00:12:05.369Z,99.42
2018-11-06T00:13:05.282Z,99.52
2018-11-06T00:14:05.195Z,99.52
2018-11-06T00:15:05.118Z,99.95
2018-11-06T00:16:05.032Z,99.99
2018-11-06T00:17:04.958Z,99.99
2018-11-06T00:18:04.869Z,99.99
2018-11-06T00:19:04.798Z,99.99
2018-11-06T00:20:04.712Z,99.99
2018-11-06T00:21:04.619Z,99.99
2018-11-06T00:22:04.545Z,99.99
2018-11-06T00:23:04.458Z,99.99
2018-11-06T00:24:04.382Z,99.99
2018-11-06T00:25:04.295Z,99.99
2018-11-06T00:26:04.209Z,99.99
2018-11-06T00:27:04.134Z,99.99
2018-11-06T00:28:04.045Z,99.99
2018-11-06T00:29:03.970Z,99.99
2018-11-06T00:30:03.883Z,99.99
2018-11-06T00:31:04.045Z,99.99
2018-11-06T00:32:03.723Z,99.99
2018-11-06T00:33:03.634Z,99.99
2018-11-06T00:34:03.576Z,99.99
2018-11-06T00:35:03.471Z,99.99
2018-11-06T00:36:03.384Z,99.99
2018-11-06T00:37:03.310Z,99.99
2018-11-06T00:38:03.234Z,99.99
2018-11-06T00:39:03.147Z,99.99
2018-11-06T00:40:03.071Z,99.99
2018-11-06T00:41:02.972Z,99.99
2018-11-06T00:42:02.897Z,99.99
2018-11-06T00:43:02.811Z,99.99
2018-11-06T00:44:02.735Z,99.99
2018-11-06T00:45:02.647Z,99.99
2018-11-06T00:46:02.561Z,99.99
2018-11-06T00:47:02.485Z,99.99
2018-11-06T00:48:02.397Z,99.99
2018-11-06T00:49:02.326Z,99.99
2018-11-06T00:50:02.236Z,99.99
2018-11-06T00:51:02.162Z,99.99
2018-11-06T00:52:02.073Z,99.99
2018-11-06T00:53:01.988Z,99.99
2018-11-06T00:54:01.912Z,99.99
2018-11-06T00:55:01.823Z,99.99
2018-11-06T00:56:01.738Z,99.99
2018-11-06T00:57:01.661Z,99.99
2018-11-06T00:58:01.573Z,99.99
2018-11-06T00:59:01.499Z,99.99
2018-11-06T01:00:01.412Z,99.99
2018-11-06T01:01:01.326Z,99.99
2018-11-06T01:02:01.249Z,99.99
2018-11-06T01:03:01.161Z,99.99
2018-11-06T01:04:01.087Z,99.99
2018-11-06T01:05:00.999Z,99.99
2018-11-06T01:06:00.916Z,99.99
2018-11-06T01:07:00.838Z,99.99
2018-11-06T01:08:00.750Z,99.99
2018-11-06T01:09:00.675Z,99.99
2018-11-06T01:10:00.588Z,99.99
2018-11-06T01:11:00.500Z,99.99
2018-11-06T01:12:00.425Z,99.99
2018-11-06T01:13:00.339Z,99.99
2018-11-06T01:14:00.251Z,99.99
2018-11-06T01:15:00.175Z,99.99
2018-11-06T01:16:00.092Z,99.99
2018-11-06T01:17:00.015Z,99.99
2018-11-06T01:17:59.938Z,99.99
2018-11-06T01:18:59.851Z,99.99
2018-11-06T01:19:59.765Z,99.99
2018-11-06T01:20:59.675Z,99.99
2018-11-06T01:21:59.601Z,99.99
2018-11-06T01:22:59.514Z,99.99
2018-11-06T01:23:59.439Z,99.99
2018-11-06T01:24:59.351Z,99.99
2018-11-06T01:25:59.268Z,99.99
2018-11-06T01:26:59.189Z,99.99
2018-11-06T01:27:59.101Z,99.99
2018-11-06T01:28:59.028Z,99.99
2018-11-06T01:29:58.942Z,99.99
2018-11-06T01:30:59.103Z,99.99
2018-11-06T01:31:58.776Z,99.99
2018-11-06T01:32:58.690Z,99.99
2018-11-06T01:33:58.602Z,99.99
2018-11-06T01:34:58.528Z,99.99
2018-11-06T01:35:58.440Z,99.99
2018-11-06T01:36:58.366Z,99.99
2018-11-06T01:37:58.277Z,99.99
2018-11-06T01:38:58.193Z,99.99
2018-11-06T01:39:58.115Z,99.99
2018-11-06T01:40:58.028Z,99.99
2018-11-06T01:41:57.953Z,99.99
2018-11-06T01:42:57.866Z,99.99
2018-11-06T01:43:57.778Z,99.99
2018-11-06T01:44:57.703Z,99.99
2018-11-06T01:45:57.617Z,99.99
2018-11-06T01:46:57.548Z,99.99
2018-11-06T01:47:57.453Z,99.99
2018-11-06T01:48:57.367Z,99.99
2018-11-06T01:49:57.292Z,99.99
2018-11-06T01:50:57.205Z,99.99
2018-11-06T01:51:57.129Z,99.99
2018-11-06T01:52:57.044Z,99.99
2018-11-06T01:53:56.955Z,99.99
2018-11-06T01:54:56.881Z,99.99
2018-11-06T01:55:56.792Z,99.99
2018-11-06T01:56:56.717Z,99.99
2018-11-06T01:57:56.629Z,99.99
2018-11-06T01:58:56.544Z,99.99
2018-11-06T01:59:56.468Z,99.99
2018-11-06T02:00:56.381Z,99.99
2018-11-06T02:01:56.305Z,99.99
2018-11-06T02:02:56.218Z,99.99
2018-11-06T02:03:56.144Z,99.99
2018-11-06T02:04:56.056Z,99.99
2018-11-06T02:05:55.968Z,99.99
2018-11-06T02:06:55.884Z,99.99
2018-11-06T02:07:55.839Z,99.99
2018-11-06T02:08:55.719Z,99.99
2018-11-06T02:09:55.644Z,99.99
2018-11-06T02:10:55.559Z,99.99
2018-11-06T02:11:55.470Z,99.99
2018-11-06T02:12:55.396Z,99.99
2018-11-06T02:13:55.307Z,99.99
2018-11-06T02:14:55.232Z,99.99
2018-11-06T02:15:55.145Z,99.99
2018-11-06T02:16:55.058Z,99.99
2018-11-06T02:17:54.997Z,99.99
2018-11-06T02:18:54.896Z,99.99
2018-11-06T02:19:54.823Z,99.99
2018-11-06T02:20:55.032Z,99.99
2018-11-06T02:21:54.645Z,99.99
2018-11-06T02:22:54.571Z,99.99
2018-11-06T02:23:54.482Z,99.99
2018-11-06T02:24:54.408Z,99.99
2018-11-06T02:25:54.322Z,99.99
2018-11-06T02:26:54.233Z,99.99
2018-11-06T02:27:54.159Z,99.99
2018-11-06T02:28:54.076Z,99.99
2018-11-06T02:29:53.984Z,99.99
2018-11-06T02:30:53.921Z,99.99
2018-11-06T02:31:53.822Z,99.99
2018-11-06T02:32:53.747Z,99.99
2018-11-06T02:33:53.659Z,99.99
2018-11-06T02:34:53.571Z,99.99
2018-11-06T02:35:53.497Z,99.99
2018-11-06T02:36:53.409Z,99.99
2018-11-06T02:37:53.334Z,99.99
2018-11-06T02:38:53.248Z,99.99
2018-11-06T02:39:53.160Z,99.99
2018-11-06T02:40:53.089Z,99.99
2018-11-06T02:41:53.003Z,99.99
2018-11-06T02:42:52.911Z,99.99
2018-11-06T02:43:52.835Z,99.99
2018-11-06T02:44:52.749Z,99.99
2018-11-06T02:45:52.673Z,99.99
2018-11-06T02:46:52.585Z,99.99
2018-11-06T02:47:52.500Z,99.99
2018-11-06T02:48:52.424Z,99.99
2018-11-06T02:49:52.335Z,99.99
2018-11-06T02:50:52.262Z,99.99
2018-11-06T02:51:52.173Z,99.99
2018-11-06T02:52:52.091Z,99.99
2018-11-06T02:53:52.011Z,99.99
2018-11-06T02:54:51.925Z,99.99
2018-11-06T02:55:51.882Z,99.99
2018-11-06T02:56:51.761Z,99.99
2018-11-06T02:57:51.691Z,99.99
2018-11-06T02:58:51.599Z,99.99
2018-11-06T02:59:51.512Z,99.99
2018-11-06T03:00:51.425Z,99.99
2018-11-06T03:01:51.350Z,99.99
2018-11-06T03:02:51.262Z,99.99
2018-11-06T03:03:51.175Z,99.99
2018-11-06T03:04:51.101Z,99.99
2018-11-06T03:05:51.013Z,99.99
2018-11-06T03:06:50.937Z,99.99
2018-11-06T03:07:50.851Z,99.99
2018-11-06T03:08:50.764Z,99.99
2018-11-06T03:09:50.688Z,99.99
2018-11-06T03:10:50.603Z,99.99
2018-11-06T03:11:50.514Z,99.99
2018-11-06T03:12:50.453Z,99.99
2018-11-06T03:13:50.352Z,99.99
2018-11-06T03:14:50.265Z,99.99
2018-11-06T03:15:50.188Z,99.99
2018-11-06T03:16:50.189Z,99.99
2018-11-06T03:17:50.027Z,99.99
2018-11-06T03:18:49.943Z,99.99
2018-11-06T03:19:49.853Z,99.99
2018-11-06T03:20:49.782Z,99.99
2018-11-06T03:21:49.689Z,99.99
2018-11-06T03:22:49.614Z,99.99
2018-11-06T03:23:49.527Z,99.99
2018-11-06T03:24:49.440Z,99.99
2018-11-06T03:25:49.365Z,99.99
2018-11-06T03:26:49.292Z,99.99
2018-11-06T03:27:49.190Z,99.99
2018-11-06T03:28:49.118Z,99.99
2018-11-06T03:29:49.039Z,99.99
2018-11-06T03:30:49.191Z,99.99
2018-11-06T03:31:48.868Z,99.99
2018-11-06T03:32:48.783Z,99.99
2018-11-06T03:33:48.704Z,99.99
2018-11-06T03:34:48.616Z,99.99
2018-11-06T03:35:48.533Z,99.99
2018-11-06T03:36:48.454Z,99.99
2018-11-06T03:37:48.365Z,99.99
2018-11-06T03:38:48.279Z,99.99
2018-11-06T03:39:48.204Z,99.99
2018-11-06T03:40:48.129Z,99.99
2018-11-06T03:41:48.041Z,99.99
2018-11-06T03:42:47.959Z,99.99
2018-11-06T03:43:47.867Z,99.99
2018-11-06T03:44:47.791Z,99.99
2018-11-06T03:45:47.705Z,99.99
2018-11-06T03:46:47.617Z,99.99
2018-11-06T03:47:47.554Z,99.99
2018-11-06T03:48:47.456Z,99.99
2018-11-06T03:49:47.370Z,99.99
2018-11-06T03:50:47.292Z,99.99
2018-11-06T03:51:47.206Z,99.99
2018-11-06T03:52:47.131Z,99.99
2018-11-06T03:53:47.042Z,99.99
2018-11-06T03:54:46.955Z,99.99
2018-11-06T03:55:46.880Z,99.99
2018-11-06T03:56:46.793Z,99.99
2018-11-06T03:57:46.718Z,99.99
2018-11-06T03:58:46.632Z,99.99
2018-11-06T03:59:46.544Z,99.99
2018-11-06T04:00:46.469Z,99.99
2018-11-06T04:01:46.383Z,99.99
2018-11-06T04:02:46.293Z,99.99
2018-11-06T04:03:46.219Z,99.99
2018-11-06T04:04:46.131Z,99.99
2018-11-06T04:05:46.046Z,99.99
2018-11-06T04:06:45.968Z,99.99
2018-11-06T04:07:45.882Z,99.99
2018-11-06T04:08:45.807Z,99.99
2018-11-06T04:09:45.719Z,99.99
2018-11-06T04:10:45.634Z,99.99
2018-11-06T04:11:45.561Z,99.99
2018-11-06T04:12:45.469Z,99.99
2018-11-06T04:13:45.382Z,99.99
2018-11-06T04:14:45.308Z,99.99
2018-11-06T04:15:45.222Z,99.99
2018-11-06T04:16:45.145Z,99.99
2018-11-06T04:17:45.064Z,99.99
2018-11-06T04:18:44.971Z,99.99
2018-11-06T04:19:44.896Z,99.99
2018-11-06T04:20:44.816Z,99.99
2018-11-06T04:21:44.721Z,99.99
2018-11-06T04:22:44.646Z,99.99
2018-11-06T04:23:44.561Z,99.99
2018-11-06T04:24:44.474Z,99.99
2018-11-06T04:25:44.397Z,99.99
2018-11-06T04:26:44.310Z,99.99
2018-11-06T04:27:44.237Z,99.99
2018-11-06T04:28:44.160Z,99.99
2018-11-06T04:29:44.061Z,99.99
2018-11-06T04:30:43.986Z,99.99
2018-11-06T04:31:43.898Z,99.99
2018-11-06T04:32:43.811Z,99.99
2018-11-06T04:33:43.735Z,99.99
2018-11-06T04:34:43.648Z,99.99
2018-11-06T04:35:43.576Z,99.99
2018-11-06T04:36:43.486Z,99.99
2018-11-06T04:37:43.417Z,99.99
2018-11-06T04:38:43.323Z,99.99
2018-11-06T04:39:43.237Z,99.99
2018-11-06T04:40:43.148Z,99.99
2018-11-06T04:41:43.087Z,99.99
2018-11-06T04:42:42.987Z,99.99
2018-11-06T04:43:42.899Z,99.99
2018-11-06T04:44:42.824Z,99.99
2018-11-06T04:45:42.737Z,99.99
2018-11-06T04:46:42.651Z,99.99
2018-11-06T04:47:42.575Z,99.99
2018-11-06T04:48:42.488Z,99.99
2018-11-06T04:49:42.416Z,99.99
2018-11-06T04:50:42.324Z,99.99
2018-11-06T04:51:42.239Z,99.99
2018-11-06T04:52:42.163Z,99.99
2018-11-06T04:53:42.075Z,99.99
2018-11-06T04:54:41.988Z,99.99
2018-11-06T04:55:41.916Z,99.99
2018-11-06T04:56:41.825Z,99.99
2018-11-06T04:57:41.738Z,99.99
2018-11-06T04:58:41.664Z,99.99
2018-11-06T04:59:41.588Z,99.99
2018-11-06T05:00:41.501Z,99.99
2018-11-06T05:01:41.413Z,99.99
2018-11-06T05:02:41.326Z,99.99
2018-11-06T05:03:41.251Z,99.99
2018-11-06T05:04:41.165Z,99.99
2018-11-06T05:05:41.076Z,99.99
2018-11-06T05:06:41.043Z,99.99
2018-11-06T05:07:40.914Z,99.99
2018-11-06T05:08:40.836Z,99.99
2018-11-06T05:09:40.765Z,99.99
2018-11-06T05:10:40.666Z,99.99
2018-11-06T05:11:40.578Z,99.99
2018-11-06T05:12:40.502Z,99.99
2018-11-06T05:13:40.415Z,99.99
2018-11-06T05:14:40.341Z,99.99
2018-11-06T05:15:40.254Z,99.99
2018-11-06T05:16:40.166Z,99.99
2018-11-06T05:17:40.093Z,99.99
2018-11-06T05:18:40.002Z,99.99
2018-11-06T05:19:39.916Z,99.99
2018-11-06T05:20:39.844Z,99.99
2018-11-06T05:21:39.753Z,99.99
2018-11-06T05:22:39.666Z,99.99
2018-11-06T05:23:39.592Z,99.99
2018-11-06T05:24:39.503Z,99.99
2018-11-06T05:25:39.459Z,99.99
2018-11-06T05:26:39.343Z,99.99
2018-11-06T05:27:39.254Z,99.99
2018-11-06T05:28:39.168Z,99.99
2018-11-06T05:29:39.093Z,99.99
2018-11-06T05:30:39.256Z,99.99
2018-11-06T05:31:38.918Z,99.99
2018-11-06T05:32:38.846Z,99.99
2018-11-06T05:33:38.755Z,99.99
2018-11-06T05:34:38.692Z,99.99
2018-11-06T05:35:38.593Z,99.99
2018-11-06T05:36:38.506Z,99.99
2018-11-06T05:37:38.429Z,99.99
2018-11-06T05:38:38.343Z,99.99
2018-11-06T05:39:38.306Z,99.99
2018-11-06T05:40:38.180Z,99.99
2018-11-06T05:41:38.093Z,99.99
2018-11-06T05:42:38.005Z,99.99
2018-11-06T05:43:37.933Z,99.99
2018-11-06T05:44:37.846Z,99.99
2018-11-06T05:45:37.821Z,99.99
2018-11-06T05:46:37.681Z,99.99
2018-11-06T05:47:37.596Z,99.99
2018-11-06T05:48:37.505Z,99.99
2018-11-06T05:49:37.431Z,99.99
2018-11-06T05:50:37.344Z,99.99
2018-11-06T05:51:37.257Z,99.99
2018-11-06T05:52:37.181Z,99.99
2018-11-06T05:53:37.095Z,99.99
2018-11-06T05:54:37.006Z,99.99
2018-11-06T05:55:36.932Z,99.99
2018-11-06T05:56:36.845Z,99.99
2018-11-06T05:57:36.756Z,99.99
2018-11-06T05:58:36.681Z,99.99
2018-11-06T05:59:36.594Z,99.99
2018-11-06T06:00:36.788Z,99.99
2018-11-06T06:01:36.432Z,99.99
2018-11-06T06:02:36.348Z,99.99
2018-11-06T06:03:36.261Z,99.99
2018-11-06T06:04:36.186Z,99.99
2018-11-06T06:05:36.096Z,99.99
2018-11-06T06:06:36.008Z,99.99
2018-11-06T06:07:35.933Z,99.99
2018-11-06T06:08:35.850Z,99.99
2018-11-06T06:09:35.758Z,99.99
2018-11-06T06:10:35.683Z,99.99
2018-11-06T06:11:35.596Z,99.99
2018-11-06T06:12:35.508Z,99.99
2018-11-06T06:13:35.423Z,99.99
2018-11-06T06:14:35.346Z,99.99
2018-11-06T06:15:35.259Z,99.99
2018-11-06T06:16:35.193Z,99.99
2018-11-06T06:17:35.097Z,99.99
2018-11-06T06:18:35.009Z,99.99
2018-11-06T06:19:34.923Z,99.99
2018-11-06T06:20:35.097Z,99.99
2018-11-06T06:21:34.759Z,99.99
2018-11-06T06:22:34.726Z,99.99
2018-11-06T06:23:34.597Z,99.99
2018-11-06T06:24:34.512Z,99.99
2018-11-06T06:25:34.423Z,99.99
2018-11-06T06:26:34.349Z,99.99
2018-11-06T06:27:34.260Z,99.99
2018-11-06T06:28:34.264Z,99.99
2018-11-06T06:29:34.098Z,99.99
2018-11-06T06:30:34.012Z,99.99
2018-11-06T06:31:33.935Z,99.99
2018-11-06T06:32:33.849Z,99.99
2018-11-06T06:33:33.774Z,99.99
2018-11-06T06:34:33.736Z,99.99
2018-11-06T06:35:33.599Z,99.99
2018-11-06T06:36:33.514Z,99.99
2018-11-06T06:37:33.425Z,99.99
2018-11-06T06:38:33.423Z,99.99
2018-11-06T06:39:33.274Z,99.99
2018-11-06T06:40:33.175Z,99.99
2018-11-06T06:41:33.099Z,99.99
2018-11-06T06:42:33.013Z,99.99
2018-11-06T06:43:32.935Z,99.99
2018-11-06T06:44:32.851Z,99.99
2018-11-06T06:45:32.763Z,99.99
2018-11-06T06:46:32.676Z,99.99
2018-11-06T06:47:32.600Z,99.99
2018-11-06T06:48:32.515Z,99.99
2018-11-06T06:49:32.425Z,99.99
2018-11-06T06:50:32.351Z,99.99
2018-11-06T06:51:32.263Z,99.99
2018-11-06T06:52:32.176Z,99.99
2018-11-06T06:53:32.090Z,99.99
2018-11-06T06:54:32.155Z,99.99
2018-11-06T06:55:31.926Z,99.99
2018-11-06T06:56:31.852Z,99.99
2018-11-06T06:57:31.763Z,99.99
2018-11-06T06:58:31.677Z,99.99
2018-11-06T06:59:31.592Z,99.99
2018-11-06T07:00:31.513Z,99.99
2018-11-06T07:01:31.427Z,99.99
2018-11-06T07:02:31.393Z,99.99
2018-11-06T07:03:31.264Z,99.99
2018-11-06T07:04:31.179Z,99.99
2018-11-06T07:05:31.090Z,99.99
2018-11-06T07:06:31.014Z,99.99
2018-11-06T07:07:30.927Z,99.99
2018-11-06T07:08:30.852Z,99.99
2018-11-06T07:09:30.764Z,99.99
2018-11-06T07:10:30.678Z,99.99
2018-11-06T07:11:30.602Z,99.99
2018-11-06T07:12:30.515Z,99.99
2018-11-06T07:13:30.439Z,99.99
2018-11-06T07:14:30.353Z,99.99
2018-11-06T07:15:30.264Z,99.99
2018-11-06T07:16:30.180Z,99.99
2018-11-06T07:17:30.092Z,99.99
2018-11-06T07:18:30.067Z,99.99
2018-11-06T07:19:29.929Z,99.99
2018-11-06T07:20:29.854Z,99.99
2018-11-06T07:21:29.767Z,99.99
2018-11-06T07:22:29.681Z,99.99
2018-11-06T07:23:29.604Z,99.99
2018-11-06T07:24:29.515Z,99.99
2018-11-06T07:25:29.440Z,99.99
2018-11-06T07:26:29.354Z,99.99
2018-11-06T07:27:29.271Z,99.99
2018-11-06T07:28:29.180Z,99.99
2018-11-06T07:29:29.106Z,99.99
2018-11-06T07:30:29.016Z,99.99
2018-11-06T07:31:28.930Z,99.99
2018-11-06T07:32:28.865Z,99.99
2018-11-06T07:33:28.768Z,99.99
2018-11-06T07:34:28.765Z,99.99
2018-11-06T07:35:28.735Z,99.99
2018-11-06T07:36:28.531Z,99.99
2018-11-06T07:37:28.444Z,99.99
2018-11-06T07:38:28.361Z,99.99
2018-11-06T07:39:28.269Z,99.99
2018-11-06T07:40:28.226Z,99.99
2018-11-06T07:41:28.107Z,99.99
2018-11-06T07:42:28.034Z,99.99
2018-11-06T07:43:27.948Z,99.99
2018-11-06T07:44:27.857Z,99.99
2018-11-06T07:45:27.769Z,99.99
2018-11-06T07:46:27.694Z,99.99
2018-11-06T07:47:27.609Z,99.99
2018-11-06T07:48:27.531Z,99.99
2018-11-06T07:49:27.444Z,99.99
2018-11-06T07:50:27.414Z,99.99
2018-11-06T07:51:27.282Z,99.99
2018-11-06T07:52:27.196Z,99.99
2018-11-06T07:53:27.107Z,99.99
2018-11-06T07:54:27.033Z,99.99
2018-11-06T07:55:26.977Z,99.99
2018-11-06T07:56:26.871Z,99.99
2018-11-06T07:57:26.783Z,99.99
2018-11-06T07:58:26.695Z,99.99
2018-11-06T07:59:26.636Z,99.99
2018-11-06T08:00:26.535Z,99.99
2018-11-06T08:01:26.458Z,99.99
2018-11-06T08:02:26.370Z,99.99
2018-11-06T08:03:26.284Z,99.99
2018-11-06T08:04:26.328Z,99.99
2018-11-06T08:05:26.120Z,99.99
2018-11-06T08:06:26.092Z,99.99
2018-11-06T08:07:25.959Z,99.99
2018-11-06T08:08:25.871Z,99.99
2018-11-06T08:09:25.840Z,99.99
2018-11-06T08:10:25.721Z,99.99
2018-11-06T08:11:25.637Z,99.99
2018-11-06T08:12:25.547Z,99.99
2018-11-06T08:13:25.461Z,99.99
2018-11-06T08:14:25.423Z,99.99
2018-11-06T08:15:25.297Z,99.99
2018-11-06T08:16:25.222Z,99.99
2018-11-06T08:17:25.139Z,99.99
2018-11-06T08:18:25.061Z,99.99
2018-11-06T08:19:24.971Z,99.99
2018-11-06T08:20:24.934Z,99.99
2018-11-06T08:21:24.810Z,99.99
2018-11-06T08:22:24.722Z,99.99
2018-11-06T08:23:24.660Z,99.99
2018-11-06T08:24:24.560Z,99.99
2018-11-06T08:25:24.486Z,99.99
2018-11-06T08:26:24.399Z,99.99
2018-11-06T08:27:24.322Z,99.99
2018-11-06T08:28:24.236Z,99.99
2018-11-06T08:29:24.160Z,99.99
2018-11-06T08:30:24.101Z,99.99
2018-11-06T08:31:24.451Z,99.99
2018-11-06T08:32:24.297Z,99.99
2018-11-06T08:33:23.823Z,99.99
2018-11-06T08:34:23.737Z,99.99
2018-11-06T08:35:23.662Z,99.99
2018-11-06T08:36:23.674Z,99.99
2018-11-06T08:37:23.500Z,99.99
2018-11-06T08:38:23.412Z,99.99
2018-11-06T08:39:23.337Z,99.99
2018-11-06T08:40:23.251Z,99.99
2018-11-06T08:41:23.175Z,99.99
2018-11-06T08:42:23.126Z,99.99
2018-11-06T08:43:23.000Z,99.99
2018-11-06T08:44:22.924Z,99.99
2018-11-06T08:45:22.839Z,99.99
2018-11-06T08:46:22.764Z,99.99
2018-11-06T08:47:22.675Z,99.99
2018-11-06T08:48:22.601Z,99.99
2018-11-06T08:49:22.516Z,99.99
2018-11-06T08:50:22.439Z,99.99
2018-11-06T08:51:22.352Z,99.99
2018-11-06T08:52:22.276Z,99.99
2018-11-06T08:53:22.189Z,99.99
2018-11-06T08:54:22.118Z,99.99
2018-11-06T08:55:22.026Z,99.99
2018-11-06T08:56:21.953Z,99.99
2018-11-06T08:57:21.865Z,99.99
2018-11-06T08:58:21.790Z,99.99
2018-11-06T08:59:21.717Z,99.99
2018-11-06T09:00:21.629Z,99.99
2018-11-06T09:01:21.543Z,99.99
2018-11-06T09:02:21.470Z,99.99
2018-11-06T09:03:21.377Z,99.99
2018-11-06T09:04:21.303Z,99.99
2018-11-06T09:05:21.216Z,99.99
2018-11-06T09:06:21.129Z,99.99
2018-11-06T09:07:21.052Z,99.99
2018-11-06T09:08:20.984Z,99.99
2018-11-06T09:09:20.891Z,99.99
2018-11-06T09:10:20.808Z,99.99
2018-11-06T09:11:20.728Z,99.99
2018-11-06T09:12:20.653Z,99.99
2018-11-06T09:13:20.566Z,99.99
2018-11-06T09:14:20.479Z,99.99
2018-11-06T09:15:20.404Z,99.99
2018-11-06T09:16:20.317Z,99.99
2018-11-06T09:17:20.243Z,99.99
2018-11-06T09:18:20.154Z,99.99
2018-11-06T09:19:20.078Z,99.99
2018-11-06T09:20:20.004Z,99.99
2018-11-06T09:21:19.916Z,99.99
2018-11-06T09:22:19.841Z,99.99
2018-11-06T09:23:19.754Z,99.99
2018-11-06T09:24:19.667Z,99.99
2018-11-06T09:25:19.595Z,99.99
2018-11-06T09:26:19.504Z,99.99
2018-11-06T09:27:19.430Z,99.99
2018-11-06T09:28:19.344Z,99.99
2018-11-06T09:29:19.273Z,99.99
2018-11-06T09:30:19.187Z,99.99
2018-11-06T09:31:19.106Z,99.99
2018-11-06T09:32:19.022Z,99.99
2018-11-06T09:33:18.944Z,99.99
2018-11-06T09:34:18.856Z,99.99
2018-11-06T09:35:18.794Z,99.99
2018-11-06T09:36:18.694Z,99.99
2018-11-06T09:37:18.624Z,99.99
2018-11-06T09:38:18.530Z,99.99
2018-11-06T09:39:18.455Z,99.99
2018-11-06T09:40:18.369Z,99.99
2018-11-06T09:41:18.330Z,99.91
2018-11-06T09:42:18.206Z,99.52
2018-11-06T09:43:18.131Z,98.86
2018-11-06T09:44:18.045Z,99.52
2018-11-06T09:45:18.009Z,98.19
2018-11-06T09:46:17.881Z,98.76
2018-11-06T09:47:17.807Z,98.86
2018-11-06T09:48:17.720Z,98.76
2018-11-06T09:49:17.646Z,97.80
2018-11-06T09:50:17.561Z,98.28
2018-11-06T09:51:17.482Z,98.33
2018-11-06T09:52:17.396Z,96.56
2018-11-06T09:53:17.322Z,97.38
2018-11-06T09:54:17.234Z,96.80
2018-11-06T09:55:17.158Z,96.27
2018-11-06T09:56:17.073Z,97.33
2018-11-06T09:57:16.996Z,96.80
2018-11-06T09:58:16.908Z,96.61
2018-11-06T09:59:16.835Z,97.18
2018-11-06T10:00:16.797Z,96.13
2018-11-06T10:01:16.672Z,95.27
2018-11-06T10:02:16.583Z,95.56
2018-11-06T10:03:16.509Z,95.27
2018-11-06T10:04:16.421Z,94.60
2018-11-06T10:05:16.347Z,94.89
2018-11-06T10:06:16.309Z,94.89
2018-11-06T10:07:16.462Z,95.36
2018-11-06T10:08:16.109Z,95.79
2018-11-06T10:09:16.055Z,95.12
2018-11-06T10:10:15.936Z,94.60
2018-11-06T10:11:15.859Z,93.88
2018-11-06T10:12:15.787Z,93.69
2018-11-06T10:13:15.699Z,94.07
2018-11-06T10:14:15.623Z,93.69
2018-11-06T10:15:15.535Z,94.17
2018-11-06T10:16:15.460Z,94.07
2018-11-06T10:17:15.374Z,93.35
2018-11-06T10:18:15.298Z,92.68
2018-11-06T10:19:15.211Z,91.34
2018-11-06T10:20:15.135Z,90.57
2018-11-06T10:21:15.068Z,90.28
2018-11-06T10:22:14.974Z,89.47
2018-11-06T10:23:14.899Z,89.32
2018-11-06T10:24:14.810Z,89.37
2018-11-06T10:25:14.735Z,88.89
2018-11-06T10:26:14.649Z,87.55
2018-11-06T10:27:14.582Z,88.51
2018-11-06T10:28:14.487Z,89.08
2018-11-06T10:29:14.411Z,88.02
2018-11-06T10:30:14.336Z,87.45
2018-11-06T10:31:14.251Z,88.60
2018-11-06T10:32:14.175Z,88.70
2018-11-06T10:33:14.088Z,87.11
2018-11-06T10:34:14.012Z,86.00
2018-11-06T10:35:13.925Z,84.89
2018-11-06T10:36:13.852Z,83.64
2018-11-06T10:37:13.763Z,83.40
2018-11-06T10:38:13.758Z,82.48
2018-11-06T10:39:13.615Z,82.24
2018-11-06T10:40:13.525Z,82.10
2018-11-06T10:41:13.453Z,82.73
2018-11-06T10:42:13.363Z,83.07
2018-11-06T10:43:13.287Z,83.16
2018-11-06T10:44:13.213Z,83.16
2018-11-06T10:45:13.126Z,83.74
2018-11-06T10:46:13.055Z,84.31
2018-11-06T10:47:12.976Z,84.12
2018-11-06T10:48:12.888Z,83.84
2018-11-06T10:49:12.813Z,83.26
2018-11-06T10:50:12.739Z,82.68
2018-11-06T10:51:12.651Z,82.97
2018-11-06T10:52:12.577Z,83.51
2018-11-06T10:53:12.489Z,84.71
2018-11-06T10:54:12.413Z,85.38
2018-11-06T10:55:12.333Z,85.38
2018-11-06T10:56:12.254Z,86.44
2018-11-06T10:57:12.178Z,86.25
2018-11-06T10:58:12.155Z,85.38
2018-11-06T10:59:12.015Z,84.47
2018-11-06T11:00:11.939Z,84.27
2018-11-06T11:01:11.859Z,84.37
2018-11-06T11:02:11.779Z,83.54
2018-11-06T11:03:11.694Z,83.36
2018-11-06T11:04:11.675Z,82.97
2018-11-06T11:05:11.542Z,82.97
2018-11-06T11:06:11.455Z,82.97
2018-11-06T11:07:11.378Z,82.73
2018-11-06T11:08:11.304Z,82.92
2018-11-06T11:09:11.220Z,82.24
2018-11-06T11:10:11.179Z,82.49
2018-11-06T11:11:11.066Z,81.76
2018-11-06T11:12:10.991Z,82.05
2018-11-06T11:13:10.953Z,81.32
2018-11-06T11:14:10.848Z,81.04
2018-11-06T11:15:10.756Z,79.53
2018-11-06T11:16:10.667Z,78.61
2018-11-06T11:17:10.592Z,77.08
2018-11-06T11:18:10.530Z,77.04
2018-11-06T11:19:10.446Z,77.81
2018-11-06T11:20:10.410Z,77.84
2018-11-06T11:21:10.280Z,76.50
2018-11-06T11:22:10.205Z,76.69
2018-11-06T11:23:10.131Z,75.96
2018-11-06T11:24:10.061Z,75.32
2018-11-06T11:25:09.968Z,74.65
2018-11-06T11:26:09.892Z,74.99
2018-11-06T11:27:09.819Z,75.86
2018-11-06T11:28:09.743Z,74.90
2018-11-06T11:29:09.669Z,74.65
2018-11-06T11:30:09.593Z,74.16
2018-11-06T11:31:09.506Z,73.88
2018-11-06T11:32:09.432Z,73.65
2018-11-06T11:33:09.358Z,74.01
2018-11-06T11:34:09.282Z,73.82
2018-11-06T11:35:09.207Z,73.62
2018-11-06T11:36:09.132Z,73.10
2018-11-06T11:37:09.044Z,73.68
2018-11-06T11:38:08.971Z,73.78
2018-11-06T11:39:08.899Z,73.30
2018-11-06T11:40:08.824Z,73.30
2018-11-06T11:41:08.760Z,73.39
2018-11-06T11:42:08.675Z,74.03
2018-11-06T11:43:08.597Z,74.65
2018-11-06T11:44:08.524Z,73.43
2018-11-06T11:45:08.437Z,72.56
2018-11-06T11:46:08.359Z,72.37
2018-11-06T11:47:08.283Z,72.75
2018-11-06T11:48:08.209Z,72.08
2018-11-06T11:49:08.133Z,72.63
2018-11-06T11:50:08.058Z,72.53
2018-11-06T11:51:07.987Z,72.85
2018-11-06T11:52:07.914Z,71.54
2018-11-06T11:53:07.822Z,70.32
2018-11-06T11:54:07.747Z,70.09
2018-11-06T11:55:07.672Z,70.03
2018-11-06T11:56:07.621Z,69.90
2018-11-06T11:57:07.522Z,70.76
2018-11-06T11:58:07.447Z,71.09
2018-11-06T11:59:07.371Z,71.54
2018-11-06T12:00:07.371Z,70.25
2018-11-06T12:01:07.223Z,70.35
2018-11-06T12:02:07.212Z,71.02
2018-11-06T12:03:07.072Z,70.92
2018-11-06T12:04:07.002Z,70.38
2018-11-06T12:05:06.922Z,69.93
2018-11-06T12:06:06.836Z,68.19
2018-11-06T12:07:06.761Z,68.55
2018-11-06T12:08:06.697Z,68.68
2018-11-06T12:09:06.616Z,69.57
2018-11-06T12:10:06.547Z,69.87
2018-11-06T12:11:06.461Z,69.61
2018-11-06T12:12:06.397Z,69.42
2018-11-06T12:13:06.311Z,68.55
2018-11-06T12:14:06.235Z,68.93
2018-11-06T12:15:06.161Z,67.52
2018-11-06T12:16:06.087Z,67.46
2018-11-06T12:17:06.011Z,67.27
2018-11-06T12:18:05.973Z,67.14
2018-11-06T12:19:05.862Z,67.71
2018-11-06T12:20:05.787Z,68.07
2018-11-06T12:21:05.702Z,67.30
2018-11-06T12:22:05.637Z,68.07
2018-11-06T12:23:05.549Z,68.55
2018-11-06T12:24:05.491Z,67.04
2018-11-06T12:25:05.528Z,68.04
2018-11-06T12:26:05.337Z,67.14
2018-11-06T12:27:05.250Z,66.88
2018-11-06T12:28:05.175Z,67.58
2018-11-06T12:29:05.101Z,67.97
2018-11-06T12:30:05.028Z,68.26
2018-11-06T12:31:04.952Z,67.33
2018-11-06T12:32:04.876Z,67.04
2018-11-06T12:33:04.800Z,66.94
2018-11-06T12:34:04.734Z,67.00
2018-11-06T12:35:04.650Z,67.20
2018-11-06T12:36:04.588Z,67.14
2018-11-06T12:37:04.548Z,67.81
2018-11-06T12:38:04.415Z,67.30
2018-11-06T12:39:04.339Z,69.09
2018-11-06T12:40:04.268Z,69.77
2018-11-06T12:41:04.190Z,70.64
2018-11-06T12:42:04.115Z,71.02
2018-11-06T12:43:04.088Z,70.98
2018-11-06T12:44:03.964Z,72.05
2018-11-06T12:45:03.889Z,72.88
2018-11-06T12:46:03.815Z,73.36
2018-11-06T12:47:03.742Z,73.65
2018-11-06T12:48:03.665Z,73.13
2018-11-06T12:49:03.590Z,74.41
2018-11-06T12:54:58.372Z,73.20
2018-11-06T12:59:29.304Z,74.61